Terminal Aerodrome Forecast
Issued by NWS Portland, OR

Home | Current Version | Previous Version | Text Only | Print | Product List | Glossary On
Versions: 1 2 3 4 5 6 7 8 9 10 11 12 13 14 15 16 17 18 19 20 21 22 23 24 25 26 27 28 29 30 31 32 33
000
FTUS46 KPQR 230540
TAFSLE
TAF
KSLE 230540Z 2306/2406 16004KT P6SM -SHRA SCT050 OVC100
     FM231200 19004KT P6SM -RA BKN050 OVC080
     FM231900 18007KT P6SM VCSH SCT050 BKN080
     FM240300 16006KT P6SM -RA BKN045 OVC070=

USA.gov is the U.S. government's official web portal to all federal, state and local government web resources and services.